sensor_id;sensor_type;location;lat;lon;timestamp;P1;durP1;ratioP1;P2;durP2;ratioP2
37459;SDS011;23318;50.966;5.284;2023-04-06T00:01:31;19.45;;;11.98;;
37459;SDS011;23318;50.966;5.284;2023-04-06T00:03:57;19.13;;;11.45;;
37459;SDS011;23318;50.966;5.284;2023-04-06T00:06:22;23.17;;;12.73;;
37459;SDS011;23318;50.966;5.284;2023-04-06T00:08:48;20.13;;;11.85;;
37459;SDS011;23318;50.966;5.284;2023-04-06T00:11:14;21.80;;;12.82;;
37459;SDS011;23318;50.966;5.284;2023-04-06T00:13:41;23.42;;;12.70;;
37459;SDS011;23318;50.966;5.284;2023-04-06T00:16:07;16.70;;;11.98;;
37459;SDS011;23318;50.966;5.284;2023-04-06T00:18:33;18.48;;;11.68;;
37459;SDS011;23318;50.966;5.284;2023-04-06T00:20:59;22.02;;;12.38;;
37459;SDS011;23318;50.966;5.284;2023-04-06T00:23:24;20.27;;;12.25;;
37459;SDS011;23318;50.966;5.284;2023-04-06T00:25:50;19.90;;;12.02;;
37459;SDS011;23318;50.966;5.284;2023-04-06T00:28:16;19.52;;;13.43;;
37459;SDS011;23318;50.966;5.284;2023-04-06T00:30:42;21.15;;;13.18;;
37459;SDS011;23318;50.966;5.284;2023-04-06T00:33:07;19.85;;;12.82;;
37459;SDS011;23318;50.966;5.284;2023-04-06T00:35:33;21.63;;;13.52;;
37459;SDS011;23318;50.966;5.284;2023-04-06T00:37:59;23.92;;;14.30;;
37459;SDS011;23318;50.966;5.284;2023-04-06T00:40:25;21.00;;;14.05;;
37459;SDS011;23318;50.966;5.284;2023-04-06T00:42:53;22.45;;;14.30;;
37459;SDS011;23318;50.966;5.284;2023-04-06T00:45:19;24.15;;;14.13;;
37459;SDS011;23318;50.966;5.284;2023-04-06T00:47:45;24.50;;;14.70;;
37459;SDS011;23318;50.966;5.284;2023-04-06T00:50:11;24.00;;;14.45;;
37459;SDS011;23318;50.966;5.284;2023-04-06T00:52:36;24.52;;;14.40;;
37459;SDS011;23318;50.966;5.284;2023-04-06T00:55:03;26.33;;;15.95;;
37459;SDS011;23318;50.966;5.284;2023-04-06T00:57:29;23.88;;;15.40;;
37459;SDS011;23318;50.966;5.284;2023-04-06T00:59:55;28.48;;;15.93;;
37459;SDS011;23318;50.966;5.284;2023-04-06T01:02:21;28.60;;;16.35;;
37459;SDS011;23318;50.966;5.284;2023-04-06T01:04:48;27.23;;;16.48;;
37459;SDS011;23318;50.966;5.284;2023-04-06T01:07:13;26.23;;;15.43;;
37459;SDS011;23318;50.966;5.284;2023-04-06T01:09:39;25.48;;;14.77;;
37459;SDS011;23318;50.966;5.284;2023-04-06T01:12:06;31.42;;;17.38;;
37459;SDS011;23318;50.966;5.284;2023-04-06T01:14:32;32.42;;;18.48;;
37459;SDS011;23318;50.966;5.284;2023-04-06T01:16:58;34.92;;;19.35;;
37459;SDS011;23318;50.966;5.284;2023-04-06T01:19:25;36.38;;;21.77;;
37459;SDS011;23318;50.966;5.284;2023-04-06T01:21:51;43.78;;;23.08;;
37459;SDS011;23318;50.966;5.284;2023-04-06T01:24:18;29.27;;;17.00;;
37459;SDS011;23318;50.966;5.284;2023-04-06T01:26:44;26.08;;;15.68;;
37459;SDS011;23318;50.966;5.284;2023-04-06T01:29:10;27.02;;;16.02;;
37459;SDS011;23318;50.966;5.284;2023-04-06T01:31:36;27.33;;;15.80;;
37459;SDS011;23318;50.966;5.284;2023-04-06T01:34:02;29.45;;;16.58;;
37459;SDS011;23318;50.966;5.284;2023-04-06T01:36:28;24.25;;;15.85;;
37459;SDS011;23318;50.966;5.284;2023-04-06T01:38:53;29.63;;;15.88;;
37459;SDS011;23318;50.966;5.284;2023-04-06T01:41:20;27.75;;;16.17;;
37459;SDS011;23318;50.966;5.284;2023-04-06T01:43:46;30.58;;;15.52;;
37459;SDS011;23318;50.966;5.284;2023-04-06T01:46:12;27.17;;;15.95;;
37459;SDS011;23318;50.966;5.284;2023-04-06T01:48:38;27.65;;;16.60;;
37459;SDS011;23318;50.966;5.284;2023-04-06T01:51:04;26.88;;;15.35;;
37459;SDS011;23318;50.966;5.284;2023-04-06T01:53:30;27.75;;;16.23;;
37459;SDS011;23318;50.966;5.284;2023-04-06T01:55:55;27.63;;;17.23;;
37459;SDS011;23318;50.966;5.284;2023-04-06T01:58:21;28.00;;;17.40;;
37459;SDS011;23318;50.966;5.284;2023-04-06T02:00:47;29.75;;;17.90;;
37459;SDS011;23318;50.966;5.284;2023-04-06T02:03:12;32.30;;;18.20;;
37459;SDS011;23318;50.966;5.284;2023-04-06T02:05:39;33.67;;;19.73;;
37459;SDS011;23318;50.966;5.284;2023-04-06T02:08:05;31.58;;;18.67;;
37459;SDS011;23318;50.966;5.284;2023-04-06T02:10:31;33.47;;;19.10;;
37459;SDS011;23318;50.966;5.284;2023-04-06T02:12:58;32.38;;;19.90;;
37459;SDS011;23318;50.966;5.284;2023-04-06T02:15:24;33.13;;;19.95;;
37459;SDS011;23318;50.966;5.284;2023-04-06T02:17:50;34.22;;;20.10;;
37459;SDS011;23318;50.966;5.284;2023-04-06T02:20:16;35.63;;;20.52;;
37459;SDS011;23318;50.966;5.284;2023-04-06T02:22:42;33.63;;;19.60;;
37459;SDS011;23318;50.966;5.284;2023-04-06T02:25:08;32.10;;;19.90;;
37459;SDS011;23318;50.966;5.284;2023-04-06T02:27:34;31.55;;;19.27;;
37459;SDS011;23318;50.966;5.284;2023-04-06T02:30:01;32.47;;;19.05;;
37459;SDS011;23318;50.966;5.284;2023-04-06T02:32:27;29.83;;;18.40;;
37459;SDS011;23318;50.966;5.284;2023-04-06T02:34:52;31.80;;;18.98;;
37459;SDS011;23318;50.966;5.284;2023-04-06T02:37:18;29.10;;;18.30;;
37459;SDS011;23318;50.966;5.284;2023-04-06T02:39:44;31.38;;;18.67;;
37459;SDS011;23318;50.966;5.284;2023-04-06T02:42:10;31.75;;;17.63;;
37459;SDS011;23318;50.966;5.284;2023-04-06T02:44:36;28.90;;;18.55;;
37459;SDS011;23318;50.966;5.284;2023-04-06T02:47:01;30.25;;;19.55;;
37459;SDS011;23318;50.966;5.284;2023-04-06T02:49:27;31.08;;;19.55;;
37459;SDS011;23318;50.966;5.284;2023-04-06T02:51:54;30.40;;;18.77;;
37459;SDS011;23318;50.966;5.284;2023-04-06T02:54:19;34.85;;;20.77;;
37459;SDS011;23318;50.966;5.284;2023-04-06T02:56:45;29.23;;;19.10;;
37459;SDS011;23318;50.966;5.284;2023-04-06T02:59:11;27.63;;;18.52;;
37459;SDS011;23318;50.966;5.284;2023-04-06T03:01:36;29.77;;;18.85;;
37459;SDS011;23318;50.966;5.284;2023-04-06T03:04:02;28.15;;;18.58;;
37459;SDS011;23318;50.966;5.284;2023-04-06T03:06:28;28.00;;;18.85;;
37459;SDS011;23318;50.966;5.284;2023-04-06T03:08:53;29.63;;;19.00;;
37459;SDS011;23318;50.966;5.284;2023-04-06T03:11:19;30.05;;;17.85;;
37459;SDS011;23318;50.966;5.284;2023-04-06T03:13:45;30.67;;;18.67;;
37459;SDS011;23318;50.966;5.284;2023-04-06T03:16:11;32.10;;;20.10;;
37459;SDS011;23318;50.966;5.284;2023-04-06T03:18:37;37.42;;;21.00;;
37459;SDS011;23318;50.966;5.284;2023-04-06T03:21:02;31.20;;;17.85;;
37459;SDS011;23318;50.966;5.284;2023-04-06T03:23:28;28.50;;;18.38;;
37459;SDS011;23318;50.966;5.284;2023-04-06T03:25:54;31.33;;;17.75;;
37459;SDS011;23318;50.966;5.284;2023-04-06T03:28:20;31.35;;;18.17;;
37459;SDS011;23318;50.966;5.284;2023-04-06T03:30:46;32.42;;;19.02;;
37459;SDS011;23318;50.966;5.284;2023-04-06T03:33:11;34.70;;;20.23;;
37459;SDS011;23318;50.966;5.284;2023-04-06T03:35:37;37.83;;;19.83;;
37459;SDS011;23318;50.966;5.284;2023-04-06T03:38:03;31.17;;;18.35;;
37459;SDS011;23318;50.966;5.284;2023-04-06T03:40:32;31.00;;;19.50;;
37459;SDS011;23318;50.966;5.284;2023-04-06T03:42:58;33.50;;;19.50;;
37459;SDS011;23318;50.966;5.284;2023-04-06T03:45:24;30.95;;;17.98;;
37459;SDS011;23318;50.966;5.284;2023-04-06T03:47:50;34.28;;;18.55;;
37459;SDS011;23318;50.966;5.284;2023-04-06T03:50:15;36.80;;;19.77;;
37459;SDS011;23318;50.966;5.284;2023-04-06T03:52:41;30.83;;;19.65;;
37459;SDS011;23318;50.966;5.284;2023-04-06T03:55:07;38.45;;;20.20;;
37459;SDS011;23318;50.966;5.284;2023-04-06T03:57:33;37.35;;;19.15;;
37459;SDS011;23318;50.966;5.284;2023-04-06T03:59:58;34.25;;;19.27;;
37459;SDS011;23318;50.966;5.284;2023-04-06T04:02:24;31.25;;;19.95;;
37459;SDS011;23318;50.966;5.284;2023-04-06T04:04:50;41.35;;;20.17;;
37459;SDS011;23318;50.966;5.284;2023-04-06T04:07:16;32.63;;;18.52;;
37459;SDS011;23318;50.966;5.284;2023-04-06T04:09:41;32.80;;;19.17;;
37459;SDS011;23318;50.966;5.284;2023-04-06T04:12:07;34.20;;;19.70;;
37459;SDS011;23318;50.966;5.284;2023-04-06T04:14:33;39.80;;;20.83;;
37459;SDS011;23318;50.966;5.284;2023-04-06T04:16:58;38.80;;;20.70;;
37459;SDS011;23318;50.966;5.284;2023-04-06T04:19:24;39.33;;;21.30;;
37459;SDS011;23318;50.966;5.284;2023-04-06T04:21:50;37.95;;;22.33;;
37459;SDS011;23318;50.966;5.284;2023-04-06T04:24:15;42.95;;;21.40;;
37459;SDS011;23318;50.966;5.284;2023-04-06T04:26:41;39.03;;;23.15;;
37459;SDS011;23318;50.966;5.284;2023-04-06T04:29:07;42.00;;;24.13;;
37459;SDS011;23318;50.966;5.284;2023-04-06T04:31:32;38.50;;;22.70;;
37459;SDS011;23318;50.966;5.284;2023-04-06T04:33:59;43.30;;;22.77;;
37459;SDS011;23318;50.966;5.284;2023-04-06T04:36:25;51.03;;;24.35;;
37459;SDS011;23318;50.966;5.284;2023-04-06T04:38:54;50.55;;;23.83;;
37459;SDS011;23318;50.966;5.284;2023-04-06T04:41:19;46.97;;;23.55;;
37459;SDS011;23318;50.966;5.284;2023-04-06T04:43:45;49.15;;;23.55;;
37459;SDS011;23318;50.966;5.284;2023-04-06T04:46:11;53.75;;;24.40;;
37459;SDS011;23318;50.966;5.284;2023-04-06T04:48:37;46.03;;;24.40;;
37459;SDS011;23318;50.966;5.284;2023-04-06T04:51:03;51.22;;;23.52;;
37459;SDS011;23318;50.966;5.284;2023-04-06T04:53:29;45.55;;;22.38;;
37459;SDS011;23318;50.966;5.284;2023-04-06T04:55:55;41.78;;;21.95;;
37459;SDS011;23318;50.966;5.284;2023-04-06T04:58:21;41.78;;;22.25;;
37459;SDS011;23318;50.966;5.284;2023-04-06T05:00:46;42.05;;;22.60;;
37459;SDS011;23318;50.966;5.284;2023-04-06T05:03:16;43.97;;;22.73;;
37459;SDS011;23318;50.966;5.284;2023-04-06T05:05:47;36.60;;;21.50;;
37459;SDS011;23318;50.966;5.284;2023-04-06T05:08:13;43.13;;;22.80;;
37459;SDS011;23318;50.966;5.284;2023-04-06T05:10:39;43.92;;;22.27;;
37459;SDS011;23318;50.966;5.284;2023-04-06T05:13:05;43.60;;;23.05;;
37459;SDS011;23318;50.966;5.284;2023-04-06T05:15:30;45.00;;;22.35;;
37459;SDS011;23318;50.966;5.284;2023-04-06T05:17:56;43.45;;;22.15;;
37459;SDS011;23318;50.966;5.284;2023-04-06T05:20:23;46.72;;;22.85;;
37459;SDS011;23318;50.966;5.284;2023-04-06T05:22:48;41.35;;;21.75;;
37459;SDS011;23318;50.966;5.284;2023-04-06T05:25:14;42.15;;;22.02;;
37459;SDS011;23318;50.966;5.284;2023-04-06T05:27:40;49.30;;;23.05;;
37459;SDS011;23318;50.966;5.284;2023-04-06T05:30:06;45.88;;;21.98;;
37459;SDS011;23318;50.966;5.284;2023-04-06T05:32:32;41.80;;;22.13;;
37459;SDS011;23318;50.966;5.284;2023-04-06T05:34:58;41.80;;;21.80;;
37459;SDS011;23318;50.966;5.284;2023-04-06T05:37:24;48.40;;;20.88;;
37459;SDS011;23318;50.966;5.284;2023-04-06T05:39:50;64.10;;;21.95;;
37459;SDS011;23318;50.966;5.284;2023-04-06T05:42:16;49.95;;;23.05;;
37459;SDS011;23318;50.966;5.284;2023-04-06T05:44:42;51.88;;;21.77;;
37459;SDS011;23318;50.966;5.284;2023-04-06T05:47:07;47.90;;;22.20;;
37459;SDS011;23318;50.966;5.284;2023-04-06T05:49:33;56.00;;;21.27;;
37459;SDS011;23318;50.966;5.284;2023-04-06T05:51:59;48.72;;;22.42;;
37459;SDS011;23318;50.966;5.284;2023-04-06T05:54:26;43.88;;;21.27;;
37459;SDS011;23318;50.966;5.284;2023-04-06T05:56:52;38.85;;;20.77;;
37459;SDS011;23318;50.966;5.284;2023-04-06T05:59:17;43.38;;;20.98;;
37459;SDS011;23318;50.966;5.284;2023-04-06T06:01:43;47.80;;;21.13;;
37459;SDS011;23318;50.966;5.284;2023-04-06T06:04:09;42.58;;;20.77;;
37459;SDS011;23318;50.966;5.284;2023-04-06T06:06:35;35.45;;;20.75;;
37459;SDS011;23318;50.966;5.284;2023-04-06T06:09:01;33.53;;;19.85;;
37459;SDS011;23318;50.966;5.284;2023-04-06T06:11:28;36.60;;;20.25;;
37459;SDS011;23318;50.966;5.284;2023-04-06T06:13:55;39.05;;;19.80;;
37459;SDS011;23318;50.966;5.284;2023-04-06T06:16:21;40.42;;;19.75;;
37459;SDS011;23318;50.966;5.284;2023-04-06T06:18:46;30.85;;;18.00;;
37459;SDS011;23318;50.966;5.284;2023-04-06T06:21:12;44.58;;;21.48;;
37459;SDS011;23318;50.966;5.284;2023-04-06T06:23:38;32.80;;;19.15;;
37459;SDS011;23318;50.966;5.284;2023-04-06T06:26:04;29.67;;;18.23;;
37459;SDS011;23318;50.966;5.284;2023-04-06T06:28:30;27.67;;;17.77;;
37459;SDS011;23318;50.966;5.284;2023-04-06T06:30:56;37.63;;;18.98;;
37459;SDS011;23318;50.966;5.284;2023-04-06T06:33:22;29.38;;;17.30;;
37459;SDS011;23318;50.966;5.284;2023-04-06T06:35:48;30.70;;;17.67;;
37459;SDS011;23318;50.966;5.284;2023-04-06T06:38:14;30.67;;;17.10;;
37459;SDS011;23318;50.966;5.284;2023-04-06T06:40:40;30.08;;;16.63;;
37459;SDS011;23318;50.966;5.284;2023-04-06T06:43:06;31.05;;;17.27;;
37459;SDS011;23318;50.966;5.284;2023-04-06T06:45:32;27.73;;;16.23;;
37459;SDS011;23318;50.966;5.284;2023-04-06T06:47:57;30.20;;;16.75;;
37459;SDS011;23318;50.966;5.284;2023-04-06T06:50:23;25.13;;;15.93;;
37459;SDS011;23318;50.966;5.284;2023-04-06T06:52:49;30.88;;;15.27;;
37459;SDS011;23318;50.966;5.284;2023-04-06T06:55:15;24.52;;;15.50;;
37459;SDS011;23318;50.966;5.284;2023-04-06T06:57:45;24.08;;;15.45;;
37459;SDS011;23318;50.966;5.284;2023-04-06T07:00:12;26.58;;;15.35;;
37459;SDS011;23318;50.966;5.284;2023-04-06T07:02:39;24.70;;;14.27;;
37459;SDS011;23318;50.966;5.284;2023-04-06T07:05:05;31.55;;;14.73;;
37459;SDS011;23318;50.966;5.284;2023-04-06T07:07:32;28.48;;;14.20;;
37459;SDS011;23318;50.966;5.284;2023-04-06T07:09:58;25.40;;;14.70;;
37459;SDS011;23318;50.966;5.284;2023-04-06T07:12:25;22.15;;;15.23;;
37459;SDS011;23318;50.966;5.284;2023-04-06T07:14:50;29.05;;;15.40;;
37459;SDS011;23318;50.966;5.284;2023-04-06T07:17:16;24.90;;;15.70;;
37459;SDS011;23318;50.966;5.284;2023-04-06T07:19:42;30.55;;;14.98;;
37459;SDS011;23318;50.966;5.284;2023-04-06T07:22:08;24.25;;;15.35;;
37459;SDS011;23318;50.966;5.284;2023-04-06T07:24:34;25.73;;;15.73;;
37459;SDS011;23318;50.966;5.284;2023-04-06T07:26:59;26.92;;;14.65;;
37459;SDS011;23318;50.966;5.284;2023-04-06T07:29:26;26.92;;;15.00;;
37459;SDS011;23318;50.966;5.284;2023-04-06T07:31:52;24.27;;;13.80;;
37459;SDS011;23318;50.966;5.284;2023-04-06T07:34:18;25.45;;;14.75;;
37459;SDS011;23318;50.966;5.284;2023-04-06T07:36:44;20.90;;;13.55;;
37459;SDS011;23318;50.966;5.284;2023-04-06T07:39:09;23.98;;;14.77;;
37459;SDS011;23318;50.966;5.284;2023-04-06T07:41:35;25.58;;;14.32;;
37459;SDS011;23318;50.966;5.284;2023-04-06T07:44:02;25.08;;;14.15;;
37459;SDS011;23318;50.966;5.284;2023-04-06T07:46:29;22.02;;;14.18;;
37459;SDS011;23318;50.966;5.284;2023-04-06T07:48:56;25.33;;;15.18;;
37459;SDS011;23318;50.966;5.284;2023-04-06T07:51:23;22.42;;;14.18;;
37459;SDS011;23318;50.966;5.284;2023-04-06T07:53:50;22.88;;;14.23;;
37459;SDS011;23318;50.966;5.284;2023-04-06T07:56:15;22.02;;;13.48;;
37459;SDS011;23318;50.966;5.284;2023-04-06T07:58:41;24.92;;;14.38;;
37459;SDS011;23318;50.966;5.284;2023-04-06T08:01:07;24.88;;;14.27;;
37459;SDS011;23318;50.966;5.284;2023-04-06T08:03:33;27.45;;;14.25;;
37459;SDS011;23318;50.966;5.284;2023-04-06T08:06:00;24.67;;;14.00;;
37459;SDS011;23318;50.966;5.284;2023-04-06T08:08:26;24.92;;;14.60;;
37459;SDS011;23318;50.966;5.284;2023-04-06T08:10:51;22.52;;;14.48;;
37459;SDS011;23318;50.966;5.284;2023-04-06T08:13:17;24.88;;;13.63;;
37459;SDS011;23318;50.966;5.284;2023-04-06T08:15:43;26.90;;;14.25;;
37459;SDS011;23318;50.966;5.284;2023-04-06T08:18:09;23.40;;;13.52;;
37459;SDS011;23318;50.966;5.284;2023-04-06T08:20:36;24.00;;;14.40;;
37459;SDS011;23318;50.966;5.284;2023-04-06T08:23:01;23.95;;;14.45;;
37459;SDS011;23318;50.966;5.284;2023-04-06T08:25:27;19.35;;;13.73;;
37459;SDS011;23318;50.966;5.284;2023-04-06T08:27:53;23.08;;;13.93;;
37459;SDS011;23318;50.966;5.284;2023-04-06T08:30:18;20.67;;;13.38;;
37459;SDS011;23318;50.966;5.284;2023-04-06T08:32:44;24.40;;;14.40;;
37459;SDS011;23318;50.966;5.284;2023-04-06T08:35:11;22.25;;;13.55;;
37459;SDS011;23318;50.966;5.284;2023-04-06T08:37:37;23.50;;;13.40;;
37459;SDS011;23318;50.966;5.284;2023-04-06T08:40:03;26.95;;;14.20;;
37459;SDS011;23318;50.966;5.284;2023-04-06T08:42:31;23.35;;;13.18;;
37459;SDS011;23318;50.966;5.284;2023-04-06T08:44:59;23.42;;;13.27;;
37459;SDS011;23318;50.966;5.284;2023-04-06T08:47:25;23.02;;;12.63;;
37459;SDS011;23318;50.966;5.284;2023-04-06T08:49:52;24.25;;;11.38;;
37459;SDS011;23318;50.966;5.284;2023-04-06T08:52:19;21.17;;;11.38;;
37459;SDS011;23318;50.966;5.284;2023-04-06T08:54:45;22.63;;;11.75;;
37459;SDS011;23318;50.966;5.284;2023-04-06T08:57:12;19.77;;;10.77;;
37459;SDS011;23318;50.966;5.284;2023-04-06T08:59:39;18.75;;;11.90;;
37459;SDS011;23318;50.966;5.284;2023-04-06T09:02:06;18.33;;;10.85;;
37459;SDS011;23318;50.966;5.284;2023-04-06T09:04:38;21.58;;;11.35;;
37459;SDS011;23318;50.966;5.284;2023-04-06T09:07:04;14.95;;;9.23;;
37459;SDS011;23318;50.966;5.284;2023-04-06T09:09:30;20.95;;;11.20;;
37459;SDS011;23318;50.966;5.284;2023-04-06T09:11:55;19.75;;;10.88;;
37459;SDS011;23318;50.966;5.284;2023-04-06T09:14:39;16.80;;;10.48;;
37459;SDS011;23318;50.966;5.284;2023-04-06T09:17:05;19.33;;;10.55;;
37459;SDS011;23318;50.966;5.284;2023-04-06T09:19:31;17.80;;;10.07;;
37459;SDS011;23318;50.966;5.284;2023-04-06T09:22:06;18.70;;;9.82;;
37459;SDS011;23318;50.966;5.284;2023-04-06T09:24:45;18.95;;;9.82;;
37459;SDS011;23318;50.966;5.284;2023-04-06T09:27:12;17.30;;;8.32;;
37459;SDS011;23318;50.966;5.284;2023-04-06T09:29:39;19.75;;;9.35;;
37459;SDS011;23318;50.966;5.284;2023-04-06T09:32:06;20.42;;;10.20;;
37459;SDS011;23318;50.966;5.284;2023-04-06T09:34:42;15.75;;;9.80;;
37459;SDS011;23318;50.966;5.284;2023-04-06T09:37:17;15.77;;;8.90;;
37459;SDS011;23318;50.966;5.284;2023-04-06T09:39:44;13.57;;;8.10;;
37459;SDS011;23318;50.966;5.284;2023-04-06T09:42:12;15.18;;;7.90;;
37459;SDS011;23318;50.966;5.284;2023-04-06T09:44:49;14.00;;;8.80;;
37459;SDS011;23318;50.966;5.284;2023-04-06T09:47:15;14.60;;;8.63;;
37459;SDS011;23318;50.966;5.284;2023-04-06T09:49:43;17.95;;;9.63;;
37459;SDS011;23318;50.966;5.284;2023-04-06T09:52:10;13.30;;;8.35;;
37459;SDS011;23318;50.966;5.284;2023-04-06T09:54:37;12.27;;;7.97;;
37459;SDS011;23318;50.966;5.284;2023-04-06T10:00:06;17.77;;;9.00;;
37459;SDS011;23318;50.966;5.284;2023-04-06T10:08:10;16.00;;;8.25;;
37459;SDS011;23318;50.966;5.284;2023-04-06T10:10:36;16.60;;;9.50;;
37459;SDS011;23318;50.966;5.284;2023-04-06T10:13:03;15.25;;;9.27;;
37459;SDS011;23318;50.966;5.284;2023-04-06T10:15:29;16.88;;;9.93;;
37459;SDS011;23318;50.966;5.284;2023-04-06T10:17:59;15.90;;;9.48;;
37459;SDS011;23318;50.966;5.284;2023-04-06T10:20:39;14.40;;;9.10;;
37459;SDS011;23318;50.966;5.284;2023-04-06T10:25:57;18.58;;;10.38;;
37459;SDS011;23318;50.966;5.284;2023-04-06T10:28:24;15.88;;;9.38;;
37459;SDS011;23318;50.966;5.284;2023-04-06T10:31:04;16.63;;;10.27;;
37459;SDS011;23318;50.966;5.284;2023-04-06T10:33:31;17.55;;;10.32;;
37459;SDS011;23318;50.966;5.284;2023-04-06T10:35:57;14.68;;;9.98;;
37459;SDS011;23318;50.966;5.284;2023-04-06T10:38:34;17.77;;;9.88;;
37459;SDS011;23318;50.966;5.284;2023-04-06T10:41:06;17.00;;;10.50;;
37459;SDS011;23318;50.966;5.284;2023-04-06T10:43:33;17.05;;;10.15;;
37459;SDS011;23318;50.966;5.284;2023-04-06T10:46:03;14.65;;;9.85;;
37459;SDS011;23318;50.966;5.284;2023-04-06T10:48:40;16.17;;;11.10;;
37459;SDS011;23318;50.966;5.284;2023-04-06T10:51:15;15.13;;;10.20;;
37459;SDS011;23318;50.966;5.284;2023-04-06T10:53:44;17.83;;;10.77;;
37459;SDS011;23318;50.966;5.284;2023-04-06T10:56:12;14.75;;;10.60;;
37459;SDS011;23318;50.966;5.284;2023-04-06T11:01:12;14.48;;;9.93;;
37459;SDS011;23318;50.966;5.284;2023-04-06T11:03:45;14.88;;;9.63;;
37459;SDS011;23318;50.966;5.284;2023-04-06T11:06:32;16.03;;;9.57;;
37459;SDS011;23318;50.966;5.284;2023-04-06T11:08:58;16.30;;;10.00;;
37459;SDS011;23318;50.966;5.284;2023-04-06T11:11:25;15.93;;;9.50;;
37459;SDS011;23318;50.966;5.284;2023-04-06T11:13:56;13.40;;;9.48;;
37459;SDS011;23318;50.966;5.284;2023-04-06T11:16:26;13.93;;;9.25;;
37459;SDS011;23318;50.966;5.284;2023-04-06T11:18:55;13.15;;;8.93;;
37459;SDS011;23318;50.966;5.284;2023-04-06T11:21:41;11.13;;;6.90;;
37459;SDS011;23318;50.966;5.284;2023-04-06T11:24:18;11.55;;;7.95;;
37459;SDS011;23318;50.966;5.284;2023-04-06T11:26:49;11.30;;;7.00;;
37459;SDS011;23318;50.966;5.284;2023-04-06T11:29:18;13.75;;;7.72;;
37459;SDS011;23318;50.966;5.284;2023-04-06T11:31:47;13.43;;;7.70;;
37459;SDS011;23318;50.966;5.284;2023-04-06T11:34:22;12.80;;;8.75;;
37459;SDS011;23318;50.966;5.284;2023-04-06T11:36:49;11.90;;;8.18;;
37459;SDS011;23318;50.966;5.284;2023-04-06T11:39:25;13.05;;;8.02;;
37459;SDS011;23318;50.966;5.284;2023-04-06T11:41:53;12.40;;;8.27;;
37459;SDS011;23318;50.966;5.284;2023-04-06T11:44:34;14.25;;;8.38;;
37459;SDS011;23318;50.966;5.284;2023-04-06T11:47:05;15.32;;;8.07;;
37459;SDS011;23318;50.966;5.284;2023-04-06T11:49:32;11.48;;;7.95;;
37459;SDS011;23318;50.966;5.284;2023-04-06T11:52:01;13.32;;;9.00;;
37459;SDS011;23318;50.966;5.284;2023-04-06T11:54:34;14.35;;;9.30;;
37459;SDS011;23318;50.966;5.284;2023-04-06T11:57:03;11.95;;;8.23;;
37459;SDS011;23318;50.966;5.284;2023-04-06T11:59:30;14.95;;;9.15;;
37459;SDS011;23318;50.966;5.284;2023-04-06T12:02:03;17.95;;;10.07;;
37459;SDS011;23318;50.966;5.284;2023-04-06T12:04:30;12.73;;;9.73;;
37459;SDS011;23318;50.966;5.284;2023-04-06T12:06:56;17.75;;;10.90;;
37459;SDS011;23318;50.966;5.284;2023-04-06T12:09:23;13.05;;;9.63;;
37459;SDS011;23318;50.966;5.284;2023-04-06T12:11:48;15.95;;;10.55;;
37459;SDS011;23318;50.966;5.284;2023-04-06T12:14:14;19.33;;;10.45;;
37459;SDS011;23318;50.966;5.284;2023-04-06T12:16:41;15.18;;;10.13;;
37459;SDS011;23318;50.966;5.284;2023-04-06T12:19:08;13.98;;;9.65;;
37459;SDS011;23318;50.966;5.284;2023-04-06T12:21:34;18.45;;;10.27;;
37459;SDS011;23318;50.966;5.284;2023-04-06T12:24:03;14.63;;;9.35;;
37459;SDS011;23318;50.966;5.284;2023-04-06T12:26:30;13.80;;;9.15;;
37459;SDS011;23318;50.966;5.284;2023-04-06T12:28:56;14.45;;;8.98;;
37459;SDS011;23318;50.966;5.284;2023-04-06T12:31:27;13.23;;;9.77;;
37459;SDS011;23318;50.966;5.284;2023-04-06T12:33:53;17.77;;;9.90;;
37459;SDS011;23318;50.966;5.284;2023-04-06T12:36:19;16.73;;;9.40;;
37459;SDS011;23318;50.966;5.284;2023-04-06T12:38:49;15.80;;;9.75;;
37459;SDS011;23318;50.966;5.284;2023-04-06T12:41:16;14.38;;;9.55;;
37459;SDS011;23318;50.966;5.284;2023-04-06T12:43:42;18.75;;;10.43;;
37459;SDS011;23318;50.966;5.284;2023-04-06T12:46:08;15.02;;;10.77;;
37459;SDS011;23318;50.966;5.284;2023-04-06T12:48:35;16.42;;;9.93;;
37459;SDS011;23318;50.966;5.284;2023-04-06T12:51:02;16.30;;;10.35;;
37459;SDS011;23318;50.966;5.284;2023-04-06T12:53:29;16.45;;;10.30;;
37459;SDS011;23318;50.966;5.284;2023-04-06T12:55:56;17.00;;;11.45;;
37459;SDS011;23318;50.966;5.284;2023-04-06T12:58:23;20.13;;;11.05;;
37459;SDS011;23318;50.966;5.284;2023-04-06T13:00:51;13.95;;;9.98;;
37459;SDS011;23318;50.966;5.284;2023-04-06T13:03:20;16.60;;;11.35;;
37459;SDS011;23318;50.966;5.284;2023-04-06T13:05:47;14.70;;;10.15;;
37459;SDS011;23318;50.966;5.284;2023-04-06T13:08:14;15.27;;;10.73;;
37459;SDS011;23318;50.966;5.284;2023-04-06T13:10:43;17.88;;;11.15;;
37459;SDS011;23318;50.966;5.284;2023-04-06T13:13:16;16.23;;;11.63;;
37459;SDS011;23318;50.966;5.284;2023-04-06T13:15:42;16.92;;;11.48;;
37459;SDS011;23318;50.966;5.284;2023-04-06T13:18:08;17.50;;;12.13;;
37459;SDS011;23318;50.966;5.284;2023-04-06T13:20:34;15.13;;;10.50;;
37459;SDS011;23318;50.966;5.284;2023-04-06T13:23:00;16.55;;;10.80;;
37459;SDS011;23318;50.966;5.284;2023-04-06T13:25:26;14.00;;;9.85;;
37459;SDS011;23318;50.966;5.284;2023-04-06T13:27:53;15.23;;;11.50;;
37459;SDS011;23318;50.966;5.284;2023-04-06T13:30:19;16.73;;;11.82;;
37459;SDS011;23318;50.966;5.284;2023-04-06T13:32:45;15.13;;;10.43;;
37459;SDS011;23318;50.966;5.284;2023-04-06T13:35:11;14.43;;;10.07;;
37459;SDS011;23318;50.966;5.284;2023-04-06T13:37:37;12.05;;;9.55;;
37459;SDS011;23318;50.966;5.284;2023-04-06T13:40:03;13.90;;;9.95;;
37459;SDS011;23318;50.966;5.284;2023-04-06T13:42:32;13.30;;;9.85;;
37459;SDS011;23318;50.966;5.284;2023-04-06T13:44:59;12.60;;;8.90;;
37459;SDS011;23318;50.966;5.284;2023-04-06T13:47:26;13.88;;;8.65;;
37459;SDS011;23318;50.966;5.284;2023-04-06T13:49:52;14.82;;;10.32;;
37459;SDS011;23318;50.966;5.284;2023-04-06T13:52:19;13.95;;;9.95;;
37459;SDS011;23318;50.966;5.284;2023-04-06T13:54:45;14.90;;;9.85;;
37459;SDS011;23318;50.966;5.284;2023-04-06T13:57:11;13.02;;;9.85;;
37459;SDS011;23318;50.966;5.284;2023-04-06T13:59:37;14.60;;;9.07;;
37459;SDS011;23318;50.966;5.284;2023-04-06T14:02:04;18.27;;;9.73;;
37459;SDS011;23318;50.966;5.284;2023-04-06T14:04:31;13.07;;;9.57;;
37459;SDS011;23318;50.966;5.284;2023-04-06T14:06:57;12.48;;;8.73;;
37459;SDS011;23318;50.966;5.284;2023-04-06T14:09:23;13.43;;;9.40;;
37459;SDS011;23318;50.966;5.284;2023-04-06T14:11:50;13.90;;;8.88;;
37459;SDS011;23318;50.966;5.284;2023-04-06T14:14:16;16.20;;;9.45;;
37459;SDS011;23318;50.966;5.284;2023-04-06T14:16:42;11.63;;;8.55;;
37459;SDS011;23318;50.966;5.284;2023-04-06T14:19:09;12.80;;;9.35;;
37459;SDS011;23318;50.966;5.284;2023-04-06T14:21:37;13.80;;;10.13;;
37459;SDS011;23318;50.966;5.284;2023-04-06T14:24:04;13.38;;;9.55;;
37459;SDS011;23318;50.966;5.284;2023-04-06T14:26:36;12.75;;;9.77;;
37459;SDS011;23318;50.966;5.284;2023-04-06T14:29:03;14.93;;;11.48;;
37459;SDS011;23318;50.966;5.284;2023-04-06T14:31:30;16.40;;;11.10;;
37459;SDS011;23318;50.966;5.284;2023-04-06T14:33:57;16.83;;;11.75;;
37459;SDS011;23318;50.966;5.284;2023-04-06T14:36:23;19.27;;;11.90;;